createdAt,value
2022-09-01T00:00:58.083Z,11.38
2022-09-01T00:04:16.465Z,11.34
2022-09-01T00:05:20.798Z,11.34
2022-09-01T00:06:28.698Z,11.32
2022-09-01T00:11:58.535Z,11.25
2022-09-01T00:13:10.601Z,11.23
2022-09-01T00:14:38.541Z,11.23
2022-09-01T00:19:18.168Z,11.13
2022-09-01T00:21:01.532Z,11.16
2022-09-01T00:23:10.170Z,11.14
2022-09-01T00:24:19.618Z,11.12
2022-09-01T00:26:18.256Z,11.10
2022-09-01T00:30:33.653Z,11.03
2022-09-01T00:31:38.120Z,11.01
2022-09-01T00:33:32.538Z,11.01
2022-09-01T00:34:52.579Z,10.97
2022-09-01T00:35:56.643Z,10.99
2022-09-01T00:37:02.339Z,11.00
2022-09-01T00:41:03.541Z,11.03
2022-09-01T00:42:39.517Z,11.01
2022-09-01T00:43:45.626Z,11.01
2022-09-01T00:46:06.887Z,10.99
2022-09-01T00:47:41.816Z,10.99
2022-09-01T00:53:52.878Z,10.78
2022-09-01T00:55:00.467Z,10.78
2022-09-01T00:56:30.628Z,10.75
2022-09-01T00:57:59.388Z,10.71
2022-09-01T01:01:43.026Z,10.61
2022-09-01T01:02:48.071Z,10.61
2022-09-01T01:05:31.070Z,10.61
2022-09-01T01:06:36.029Z,10.56
2022-09-01T01:07:45.949Z,10.56
2022-09-01T01:08:58.427Z,10.55
2022-09-01T01:10:02.586Z,10.52
2022-09-01T01:11:18.182Z,10.52
2022-09-01T01:12:22.291Z,10.51
2022-09-01T01:14:01.367Z,10.52
2022-09-01T01:15:07.640Z,10.47
2022-09-01T01:16:17.973Z,10.43
2022-09-01T01:18:13.004Z,10.41
2022-09-01T01:23:23.677Z,10.17
2022-09-01T01:24:31.907Z,10.18
2022-09-01T01:25:40.467Z,10.18
2022-09-01T01:26:43.847Z,10.17
2022-09-01T01:27:49.517Z,10.16
2022-09-01T01:28:53.635Z,10.17
2022-09-01T01:30:01.706Z,10.18
2022-09-01T01:31:12.356Z,10.18
2022-09-01T01:32:17.126Z,10.16
2022-09-01T01:33:23.386Z,10.14
2022-09-01T01:34:55.549Z,10.10
2022-09-01T01:36:00.128Z,10.07
2022-09-01T01:37:06.939Z,10.05
2022-09-01T01:38:11.628Z,10.04
2022-09-01T01:39:18.886Z,10.04
2022-09-01T01:40:24.250Z,10.10
2022-09-01T01:41:30.196Z,10.14
2022-09-01T01:42:33.812Z,10.16
2022-09-01T01:43:38.317Z,10.16
2022-09-01T01:44:43.137Z,10.17
2022-09-01T01:45:49.337Z,10.16
2022-09-01T01:46:55.017Z,10.17
2022-09-01T01:48:01.468Z,10.19
2022-09-01T01:49:07.053Z,10.20
2022-09-01T01:50:12.912Z,10.22
2022-09-01T01:51:21.397Z,10.24
2022-09-01T01:52:26.931Z,10.26
2022-09-01T01:53:32.300Z,10.29
2022-09-01T01:54:35.977Z,10.35
2022-09-01T01:55:44.100Z,10.43
2022-09-01T01:56:47.930Z,10.51
2022-09-01T01:57:53.970Z,10.59
2022-09-01T01:58:59.106Z,10.69
2022-09-01T02:00:04.349Z,10.78
2022-09-01T02:01:17.413Z,10.88
2022-09-01T02:02:23.280Z,10.99
2022-09-01T02:03:31.128Z,11.12
2022-09-01T02:04:34.836Z,11.21
2022-09-01T02:05:45.926Z,11.31
2022-09-01T02:06:50.718Z,11.39
2022-09-01T02:07:56.930Z,11.46
2022-09-01T02:09:04.347Z,11.53
2022-09-01T02:11:29.768Z,11.65
2022-09-01T02:12:33.188Z,11.68
2022-09-01T02:13:37.668Z,11.72
2022-09-01T02:14:40.997Z,11.78
2022-09-01T02:15:47.366Z,11.83
2022-09-01T02:16:50.863Z,11.85
2022-09-01T02:18:00.935Z,11.88
2022-09-01T02:19:10.773Z,11.90
2022-09-01T02:20:16.790Z,11.91
2022-09-01T02:21:21.821Z,11.94
2022-09-01T02:22:26.007Z,11.95
2022-09-01T02:23:30.188Z,11.97
2022-09-01T02:24:34.597Z,11.99
2022-09-01T02:25:53.910Z,12.02
2022-09-01T02:27:05.931Z,12.02
2022-09-01T02:28:16.184Z,12.02
2022-09-01T02:29:24.208Z,12.03
2022-09-01T02:30:27.979Z,12.03
2022-09-01T02:31:35.687Z,12.03
2022-09-01T02:32:40.316Z,12.02
2022-09-01T02:33:47.488Z,12.02
2022-09-01T02:34:53.912Z,12.02
2022-09-01T02:36:01.029Z,12.01
2022-09-01T02:37:04.617Z,12.00
2022-09-01T02:38:09.366Z,12.01
2022-09-01T02:39:13.156Z,12.01
2022-09-01T02:40:21.381Z,12.01
2022-09-01T02:41:25.453Z,12.03
2022-09-01T02:42:32.208Z,12.03
2022-09-01T02:43:36.230Z,12.05
2022-09-01T02:44:48.226Z,12.06
2022-09-01T02:46:00.288Z,12.04
2022-09-01T02:47:06.470Z,12.03
2022-09-01T02:48:10.636Z,12.04
2022-09-01T02:49:20.065Z,12.01
2022-09-01T02:50:25.322Z,11.98
2022-09-01T02:51:30.090Z,11.97
2022-09-01T02:52:38.707Z,11.95
2022-09-01T02:53:43.968Z,11.93
2022-09-01T02:54:51.289Z,11.93
2022-09-01T02:55:59.739Z,11.92
2022-09-01T02:57:05.598Z,11.91
2022-09-01T02:58:16.777Z,11.87
2022-09-01T02:59:23.109Z,11.83
2022-09-01T03:00:31.632Z,11.80
2022-09-01T03:01:36.743Z,11.80
2022-09-01T03:02:41.270Z,11.77
2022-09-01T03:03:45.891Z,11.74
2022-09-01T03:04:55.832Z,11.70
2022-09-01T03:06:00.113Z,11.66
2022-09-01T03:07:05.669Z,11.64
2022-09-01T03:08:11.015Z,11.61
2022-09-01T03:09:18.276Z,11.57
2022-09-01T03:10:22.248Z,11.54
2022-09-01T03:11:30.211Z,11.47
2022-09-01T03:12:33.776Z,11.44
2022-09-01T03:13:45.581Z,11.39
2022-09-01T03:14:49.259Z,11.35
2022-09-01T03:15:54.046Z,11.32
2022-09-01T03:16:57.999Z,11.28
2022-09-01T03:18:02.979Z,11.24
2022-09-01T03:19:09.346Z,11.19
2022-09-01T03:20:14.122Z,11.14
2022-09-01T03:21:17.887Z,11.09
2022-09-01T03:22:23.026Z,11.05
2022-09-01T03:23:27.920Z,11.01
2022-09-01T03:24:32.455Z,10.99
2022-09-01T03:25:36.597Z,10.94
2022-09-01T03:26:41.148Z,10.90
2022-09-01T03:27:44.398Z,10.86
2022-09-01T03:28:50.708Z,10.81
2022-09-01T03:29:54.107Z,10.79
2022-09-01T03:30:59.354Z,10.77
2022-09-01T03:32:02.663Z,10.75
2022-09-01T03:33:07.667Z,10.71
2022-09-01T03:34:12.946Z,10.68
2022-09-01T03:35:23.336Z,10.65
2022-09-01T03:36:28.639Z,10.64
2022-09-01T03:37:31.796Z,10.63
2022-09-01T03:38:36.096Z,10.61
2022-09-01T03:39:41.576Z,10.61
2022-09-01T03:40:45.881Z,10.60
2022-09-01T03:41:48.977Z,10.61
2022-09-01T03:42:54.114Z,10.61
2022-09-01T03:43:59.521Z,10.62
2022-09-01T03:45:09.525Z,10.64
2022-09-01T03:46:18.766Z,10.65
2022-09-01T03:47:23.063Z,10.67
2022-09-01T03:48:29.389Z,10.66
2022-09-01T03:49:33.578Z,10.67
2022-09-01T03:50:39.838Z,10.69
2022-09-01T03:51:45.387Z,10.71
2022-09-01T03:52:49.639Z,10.72
2022-09-01T03:53:57.201Z,10.74
2022-09-01T03:55:00.819Z,10.75
2022-09-01T03:56:06.556Z,10.77
2022-09-01T03:57:11.175Z,10.77
2022-09-01T03:58:21.362Z,10.77
2022-09-01T03:59:28.776Z,10.77
2022-09-01T04:00:32.527Z,10.75
2022-09-01T04:01:43.983Z,10.74
2022-09-01T04:02:50.599Z,10.72
2022-09-01T04:04:02.238Z,10.71
2022-09-01T04:05:10.043Z,10.70
2022-09-01T04:06:15.315Z,10.69
2022-09-01T04:07:19.086Z,10.71
2022-09-01T04:08:32.596Z,10.71
2022-09-01T04:09:36.876Z,10.71
2022-09-01T04:10:52.602Z,10.74
2022-09-01T04:11:58.967Z,10.74
2022-09-01T04:13:02.629Z,10.76
2022-09-01T04:14:07.246Z,10.79
2022-09-01T04:15:17.426Z,10.81
2022-09-01T04:16:42.701Z,10.85
2022-09-01T04:18:09.669Z,10.88
2022-09-01T04:19:20.851Z,10.90
2022-09-01T04:20:26.286Z,10.93
2022-09-01T04:21:30.753Z,10.98
2022-09-01T04:22:36.230Z,11.01
2022-09-01T04:23:39.411Z,11.04
2022-09-01T04:24:46.288Z,11.06
2022-09-01T04:25:50.805Z,11.08
2022-09-01T04:26:56.548Z,11.12
2022-09-01T04:27:59.757Z,11.14
2022-09-01T04:29:03.997Z,11.18
2022-09-01T04:30:10.955Z,11.23
2022-09-01T04:31:19.728Z,11.27
2022-09-01T04:32:26.059Z,11.29
2022-09-01T04:33:40.164Z,11.33
2022-09-01T04:34:44.457Z,11.37
2022-09-01T04:35:55.198Z,11.41
2022-09-01T04:36:59.138Z,11.45
2022-09-01T04:38:03.969Z,11.48
2022-09-01T04:39:09.418Z,11.50
2022-09-01T04:40:17.918Z,11.53
2022-09-01T04:41:23.488Z,11.59
2022-09-01T04:42:30.561Z,11.64
2022-09-01T04:43:35.380Z,11.69
2022-09-01T04:44:41.013Z,11.73
2022-09-01T04:45:47.343Z,11.77
2022-09-01T04:46:52.284Z,11.82
2022-09-01T04:47:56.690Z,11.85
2022-09-01T04:49:00.167Z,11.87
2022-09-01T04:50:13.243Z,11.91
2022-09-01T04:51:19.657Z,11.94
2022-09-01T04:52:32.288Z,11.97
2022-09-01T04:53:38.608Z,11.99
2022-09-01T04:54:45.437Z,12.05
2022-09-01T04:55:49.842Z,12.08
2022-09-01T04:56:57.259Z,12.11
2022-09-01T04:58:08.353Z,12.16
2022-09-01T04:59:15.940Z,12.21
2022-09-01T05:00:24.038Z,12.25
2022-09-01T05:01:29.203Z,12.32
2022-09-01T05:02:34.222Z,12.38
2022-09-01T05:03:38.768Z,12.42
2022-09-01T05:05:04.052Z,12.45
2022-09-01T05:06:15.129Z,12.51
2022-09-01T05:07:24.513Z,12.59
2022-09-01T05:08:28.710Z,12.64
2022-09-01T05:09:40.138Z,12.70
2022-09-01T05:11:07.983Z,12.77
2022-09-01T05:12:22.304Z,12.84
2022-09-01T05:13:30.170Z,12.92
2022-09-01T05:14:34.636Z,13.00
2022-09-01T05:15:39.183Z,13.09
2022-09-01T05:16:46.534Z,13.16
2022-09-01T05:17:56.827Z,13.24
2022-09-01T05:19:03.257Z,13.31
2022-09-01T05:20:12.603Z,13.39
2022-09-01T05:21:22.489Z,13.48
2022-09-01T05:22:27.259Z,13.54
2022-09-01T05:23:44.550Z,13.63
2022-09-01T05:24:48.317Z,13.67
2022-09-01T05:25:55.031Z,13.73
2022-09-01T05:26:59.828Z,13.80
2022-09-01T05:28:05.430Z,13.87
2022-09-01T05:29:13.647Z,13.91
2022-09-01T05:30:19.636Z,13.98
2022-09-01T05:31:25.169Z,14.02
2022-09-01T05:32:29.606Z,14.09
2022-09-01T05:33:35.057Z,14.18
2022-09-01T05:34:40.185Z,14.26
2022-09-01T05:35:52.407Z,14.33
2022-09-01T05:36:59.715Z,14.41
2022-09-01T05:38:05.028Z,14.47
2022-09-01T05:39:11.411Z,14.48
2022-09-01T05:40:16.666Z,14.52
2022-09-01T05:41:24.153Z,14.58
2022-09-01T05:42:28.844Z,14.68
2022-09-01T05:43:34.840Z,14.76
2022-09-01T05:44:42.693Z,14.83
2022-09-01T05:46:05.633Z,14.90
2022-09-01T05:47:14.762Z,14.97
2022-09-01T05:48:25.934Z,15.06
2022-09-01T05:49:33.437Z,15.13
2022-09-01T05:50:43.077Z,15.19
2022-09-01T05:51:50.795Z,15.21
2022-09-01T05:52:57.704Z,15.25
2022-09-01T05:54:02.317Z,15.28
2022-09-01T05:55:09.584Z,15.30
2022-09-01T05:56:18.009Z,15.33
2022-09-01T05:57:34.197Z,15.34
2022-09-01T06:00:13.442Z,15.41
2022-09-01T06:01:22.319Z,15.41
2022-09-01T06:02:28.974Z,15.41
2022-09-01T06:03:38.467Z,15.45
2022-09-01T06:04:45.160Z,15.52
2022-09-01T06:05:54.341Z,15.61
2022-09-01T06:07:06.387Z,15.71
2022-09-01T06:08:15.248Z,15.83
2022-09-01T06:09:21.897Z,15.92
2022-09-01T06:10:27.450Z,16.00
2022-09-01T06:11:33.335Z,16.10
2022-09-01T06:12:37.705Z,16.19
2022-09-01T06:13:42.540Z,16.27
2022-09-01T06:14:47.934Z,16.35
2022-09-01T06:15:54.264Z,16.42
2022-09-01T06:16:57.703Z,16.49
2022-09-01T06:18:02.335Z,16.50
2022-09-01T06:19:07.836Z,16.51
2022-09-01T06:20:18.445Z,16.50
2022-09-01T06:21:22.745Z,16.51
2022-09-01T06:22:28.441Z,16.53
2022-09-01T06:23:34.046Z,16.56
2022-09-01T06:24:40.097Z,16.56
2022-09-01T06:25:45.353Z,16.54
2022-09-01T06:26:50.794Z,16.56
2022-09-01T06:27:54.421Z,16.63
2022-09-01T06:29:00.147Z,16.71
2022-09-01T06:30:05.062Z,16.76
2022-09-01T06:31:15.382Z,16.79
2022-09-01T06:32:19.634Z,16.79
2022-09-01T06:33:25.354Z,16.79
2022-09-01T06:34:30.272Z,16.83
2022-09-01T06:35:35.298Z,16.89
2022-09-01T06:36:43.665Z,16.93
2022-09-01T06:37:48.773Z,16.96
2022-09-01T06:39:19.992Z,17.02
2022-09-01T06:40:26.816Z,17.07
2022-09-01T06:41:31.735Z,17.16
2022-09-01T06:42:35.462Z,17.27
2022-09-01T06:43:41.417Z,17.34
2022-09-01T06:44:46.216Z,17.41
2022-09-01T06:45:54.616Z,17.44
2022-09-01T06:47:00.951Z,17.46
2022-09-01T06:48:05.924Z,17.51
2022-09-01T06:49:12.246Z,17.53
2022-09-01T06:51:15.045Z,17.62
2022-09-01T06:51:44.092Z,17.84
2022-09-01T06:54:14.681Z,18.45
2022-09-01T06:55:18.687Z,18.77
2022-09-01T06:56:24.484Z,18.99
2022-09-01T06:58:59.257Z,19.33
2022-09-01T07:00:08.048Z,19.48
2022-09-01T07:01:16.527Z,19.66
2022-09-01T07:02:20.161Z,19.88
2022-09-01T07:03:53.634Z,20.16
2022-09-01T07:10:23.326Z,21.40
2022-09-01T07:13:05.510Z,21.78
2022-09-01T07:14:26.393Z,21.82
2022-09-01T07:16:31.995Z,21.98
2022-09-01T07:17:23.268Z,22.15
2022-09-01T07:18:22.625Z,22.30
2022-09-01T07:21:36.287Z,22.59
2022-09-01T07:22:36.116Z,22.72
2022-09-01T07:24:05.870Z,22.94
2022-09-01T07:25:13.529Z,23.10
2022-09-01T07:26:46.660Z,23.20
2022-09-01T07:27:51.095Z,23.18
2022-09-01T07:29:04.069Z,23.19
2022-09-01T07:30:12.244Z,23.23
2022-09-01T07:32:47.241Z,23.40
2022-09-01T07:35:22.671Z,23.79
2022-09-01T07:36:28.100Z,23.97
2022-09-01T07:44:24.664Z,24.27
2022-09-01T07:46:00.831Z,24.31
2022-09-01T07:47:20.179Z,24.46
2022-09-01T07:48:36.650Z,24.61
2022-09-01T07:50:12.213Z,24.75
2022-09-01T07:51:37.158Z,24.54
2022-09-01T07:52:44.356Z,24.30
2022-09-01T07:53:48.645Z,24.13
2022-09-01T07:54:53.175Z,23.99
2022-09-01T07:55:57.734Z,24.04
2022-09-01T07:57:02.416Z,24.06
2022-09-01T07:58:08.801Z,24.07
2022-09-01T07:59:15.071Z,24.18
2022-09-01T08:00:32.022Z,24.32
2022-09-01T08:01:43.392Z,24.28
2022-09-01T08:02:47.391Z,24.05
2022-09-01T08:03:55.227Z,23.93
2022-09-01T08:04:59.198Z,23.94
2022-09-01T08:06:06.847Z,23.84
2022-09-01T08:07:15.566Z,23.72
2022-09-01T08:08:27.768Z,23.80
2022-09-01T08:09:37.527Z,24.02
2022-09-01T08:10:48.751Z,24.26
2022-09-01T08:12:01.636Z,24.17
2022-09-01T08:13:08.111Z,23.90
2022-09-01T08:14:11.467Z,23.74
2022-09-01T08:16:51.938Z,23.69
2022-09-01T08:17:57.120Z,23.92
2022-09-01T08:19:02.643Z,24.22
2022-09-01T08:20:20.405Z,24.51
2022-09-01T08:21:28.054Z,24.54
2022-09-01T08:22:40.036Z,24.50
2022-09-01T08:23:55.327Z,24.51
2022-09-01T08:25:00.258Z,24.42
2022-09-01T08:26:06.473Z,24.07
2022-09-01T08:27:10.894Z,23.73
2022-09-01T08:28:16.302Z,23.31
2022-09-01T08:29:21.993Z,22.94
2022-09-01T08:30:25.302Z,22.78
2022-09-01T08:31:31.253Z,22.83
2022-09-01T08:32:37.024Z,23.04
2022-09-01T08:33:42.072Z,23.30
2022-09-01T08:34:45.794Z,23.47
2022-09-01T08:35:51.146Z,23.52
2022-09-01T08:36:55.206Z,23.62
2022-09-01T08:38:00.826Z,23.84
2022-09-01T08:39:06.914Z,23.90
2022-09-01T08:40:14.843Z,23.83
2022-09-01T08:41:20.366Z,23.80
2022-09-01T08:42:46.322Z,23.84
2022-09-01T08:43:57.833Z,23.78
2022-09-01T08:45:06.245Z,23.62
2022-09-01T08:46:13.892Z,23.60
2022-09-01T08:47:28.704Z,23.45
2022-09-01T08:49:23.599Z,23.50
2022-09-01T08:50:06.005Z,23.68
2022-09-01T08:51:37.854Z,23.51
2022-09-01T08:52:43.313Z,23.30
2022-09-01T08:53:50.768Z,23.25
2022-09-01T08:55:00.110Z,23.20
2022-09-01T08:56:04.097Z,23.11
2022-09-01T08:57:11.783Z,23.29
2022-09-01T08:58:34.703Z,23.60
2022-09-01T08:59:58.633Z,23.96
2022-09-01T09:01:20.234Z,24.40
2022-09-01T09:02:36.568Z,24.82
2022-09-01T09:03:45.711Z,25.22
2022-09-01T09:04:56.895Z,25.59
2022-09-01T09:06:14.869Z,25.67
2022-09-01T09:07:28.946Z,25.72
2022-09-01T09:08:54.526Z,25.75
2022-09-01T09:10:06.126Z,25.52
2022-09-01T09:11:18.452Z,25.29
2022-09-01T09:12:49.068Z,24.95
2022-09-01T09:14:02.943Z,24.79
2022-09-01T09:15:16.735Z,24.72
2022-09-01T09:16:25.034Z,24.44
2022-09-01T09:17:31.385Z,24.17
2022-09-01T09:18:40.704Z,23.94
2022-09-01T09:19:45.199Z,23.81
2022-09-01T09:20:49.714Z,23.91
2022-09-01T09:21:54.954Z,24.15
2022-09-01T09:22:59.824Z,24.41
2022-09-01T09:24:09.657Z,24.62
2022-09-01T09:25:19.431Z,24.68
2022-09-01T09:26:22.963Z,24.78
2022-09-01T09:27:29.733Z,24.78
2022-09-01T09:28:32.805Z,24.66
2022-09-01T09:29:37.071Z,24.37
2022-09-01T09:30:40.198Z,24.02
2022-09-01T09:31:50.614Z,23.63
2022-09-01T09:34:32.894Z,23.16
2022-09-01T09:35:38.754Z,23.37
2022-09-01T09:36:42.925Z,23.65
2022-09-01T09:37:46.944Z,23.89
2022-09-01T09:39:06.800Z,24.19
2022-09-01T09:40:15.451Z,24.39
2022-09-01T09:41:26.858Z,24.64
2022-09-01T09:42:34.905Z,24.87
2022-09-01T09:43:47.581Z,25.05
2022-09-01T09:44:53.109Z,25.15
2022-09-01T09:46:25.545Z,25.32
2022-09-01T09:47:44.144Z,25.51
2022-09-01T09:48:48.508Z,25.65
2022-09-01T09:50:13.999Z,25.89
2022-09-01T09:51:19.746Z,26.00
2022-09-01T09:52:24.774Z,26.14
2022-09-01T09:53:29.849Z,26.19
2022-09-01T09:54:35.287Z,26.21
2022-09-01T09:55:56.067Z,26.26
2022-09-01T09:57:13.605Z,26.28
2022-09-01T09:58:16.804Z,26.32
2022-09-01T09:59:53.650Z,26.38
2022-09-01T10:01:03.971Z,25.95
2022-09-01T10:02:27.946Z,25.45
2022-09-01T10:03:45.270Z,24.90
2022-09-01T10:04:51.445Z,24.57
2022-09-01T10:05:59.477Z,24.49
2022-09-01T10:07:25.274Z,24.64
2022-09-01T10:08:45.479Z,24.92
2022-09-01T10:09:49.934Z,25.16
2022-09-01T10:10:58.162Z,25.41
2022-09-01T10:12:03.644Z,25.48
2022-09-01T10:13:12.406Z,25.50
2022-09-01T10:14:47.686Z,25.54
2022-09-01T10:15:43.434Z,25.65
2022-09-01T10:16:49.108Z,25.77
2022-09-01T10:19:21.633Z,25.91
2022-09-01T10:20:28.283Z,26.13
2022-09-01T10:21:34.790Z,26.27
2022-09-01T10:22:40.355Z,26.37
2022-09-01T10:23:45.573Z,26.40
2022-09-01T10:24:50.278Z,26.53
2022-09-01T10:25:59.342Z,26.70
2022-09-01T10:27:11.301Z,26.93
2022-09-01T10:28:24.616Z,27.05
2022-09-01T10:29:35.161Z,27.15
2022-09-01T10:30:47.741Z,27.21
2022-09-01T10:32:03.414Z,27.26
2022-09-01T10:33:20.844Z,27.31
2022-09-01T10:34:25.862Z,27.44
2022-09-01T10:35:32.715Z,27.50
2022-09-01T10:36:37.811Z,27.39
2022-09-01T10:37:41.458Z,27.34
2022-09-01T10:38:53.668Z,27.37
2022-09-01T10:40:36.382Z,27.25
2022-09-01T10:41:59.791Z,27.09
2022-09-01T10:43:41.254Z,26.89
2022-09-01T10:44:59.065Z,26.28
2022-09-01T10:46:15.269Z,25.82
2022-09-01T10:47:30.288Z,25.61
2022-09-01T10:48:48.186Z,25.59
2022-09-01T10:50:07.593Z,25.67
2022-09-01T10:51:50.501Z,25.86
2022-09-01T10:53:07.349Z,26.05
2022-09-01T10:54:11.291Z,26.14
2022-09-01T10:55:24.754Z,26.15
2022-09-01T10:56:42.939Z,26.13
2022-09-01T10:57:55.852Z,26.11
2022-09-01T11:01:18.925Z,26.20
2022-09-01T11:02:25.908Z,26.39
2022-09-01T11:03:54.244Z,26.62
2022-09-01T11:05:18.952Z,26.67
2022-09-01T11:07:11.996Z,26.79
2022-09-01T11:08:40.954Z,26.97
2022-09-01T11:09:48.677Z,27.06
2022-09-01T11:10:55.663Z,27.14
2022-09-01T11:12:30.014Z,27.22
2022-09-01T11:13:42.327Z,27.39
2022-09-01T11:14:51.971Z,27.55
2022-09-01T11:16:00.400Z,27.71
2022-09-01T11:17:17.891Z,27.72
2022-09-01T11:18:27.755Z,27.64
2022-09-01T11:19:41.287Z,27.65
2022-09-01T11:20:46.874Z,27.67
2022-09-01T11:22:05.244Z,27.78
2022-09-01T11:23:14.907Z,27.95
2022-09-01T11:24:54.435Z,28.00
2022-09-01T11:26:19.774Z,27.96
2022-09-01T11:27:58.060Z,28.13
2022-09-01T11:29:04.554Z,28.40
2022-09-01T11:30:10.454Z,28.75
2022-09-01T11:31:25.001Z,29.05
2022-09-01T11:32:33.138Z,29.36
2022-09-01T11:33:46.599Z,29.57
2022-09-01T11:34:51.411Z,29.29
2022-09-01T11:36:00.952Z,28.79
2022-09-01T11:37:15.436Z,28.20
2022-09-01T11:38:19.348Z,27.61
2022-09-01T11:39:33.436Z,26.88
2022-09-01T11:40:37.250Z,26.33
2022-09-01T11:41:55.751Z,25.78
2022-09-01T11:43:06.198Z,25.23
2022-09-01T11:44:23.812Z,24.86
2022-09-01T11:45:29.154Z,24.85
2022-09-01T11:46:34.919Z,25.06
2022-09-01T11:47:40.946Z,25.34
2022-09-01T11:48:47.644Z,25.75
2022-09-01T11:49:59.149Z,26.06
2022-09-01T11:51:04.484Z,26.28
2022-09-01T11:52:08.604Z,26.53
2022-09-01T11:53:14.784Z,26.83
2022-09-01T11:54:19.036Z,27.21
2022-09-01T11:55:31.372Z,27.53
2022-09-01T11:56:34.841Z,27.55
2022-09-01T11:57:40.395Z,27.34
2022-09-01T11:58:44.745Z,27.02
2022-09-01T11:59:49.534Z,26.60
2022-09-01T12:00:53.655Z,26.13
2022-09-01T12:01:57.903Z,25.65
2022-09-01T12:03:02.246Z,25.20
2022-09-01T12:04:22.632Z,24.76
2022-09-01T12:05:30.995Z,24.66
2022-09-01T12:06:35.141Z,24.75
2022-09-01T12:07:44.704Z,24.99
2022-09-01T12:08:54.780Z,25.32
2022-09-01T12:09:59.165Z,25.67
2022-09-01T12:11:05.704Z,25.95
2022-09-01T12:12:32.654Z,26.30
2022-09-01T12:13:37.484Z,26.65
2022-09-01T12:15:04.242Z,26.96
2022-09-01T12:16:24.870Z,27.25
2022-09-01T12:17:29.334Z,27.52
2022-09-01T12:18:35.734Z,27.89
2022-09-01T12:19:39.633Z,28.16
2022-09-01T12:20:43.949Z,28.40
2022-09-01T12:21:57.853Z,28.58
2022-09-01T12:23:02.614Z,28.64
2022-09-01T12:24:15.964Z,28.70
2022-09-01T12:25:23.107Z,28.88
2022-09-01T12:26:30.515Z,28.96
2022-09-01T12:27:36.845Z,29.06
2022-09-01T12:28:41.922Z,29.21
2022-09-01T12:29:46.400Z,29.41
2022-09-01T12:30:50.190Z,29.59
2022-09-01T12:31:56.288Z,29.58
2022-09-01T12:34:40.391Z,29.03
2022-09-01T12:35:44.085Z,28.86
2022-09-01T12:37:04.213Z,28.85
2022-09-01T12:38:30.272Z,28.95
2022-09-01T12:39:36.814Z,29.01
2022-09-01T12:40:41.027Z,28.98
2022-09-01T12:41:45.635Z,28.97
2022-09-01T12:42:51.940Z,29.09
2022-09-01T12:43:56.257Z,29.31
2022-09-01T12:45:02.586Z,29.56
2022-09-01T12:46:07.415Z,29.61
2022-09-01T12:47:51.864Z,29.24
2022-09-01T12:48:55.036Z,28.77
2022-09-01T12:49:59.304Z,28.43
2022-09-01T12:51:05.387Z,28.25
2022-09-01T12:52:26.341Z,28.35
2022-09-01T12:53:36.706Z,28.56
2022-09-01T12:54:40.544Z,28.88
2022-09-01T12:55:57.453Z,29.23
2022-09-01T12:57:01.623Z,29.36
2022-09-01T12:58:05.883Z,29.36
2022-09-01T12:59:15.838Z,29.26
2022-09-01T13:00:24.604Z,29.10
2022-09-01T13:01:30.926Z,29.06
2022-09-01T13:02:38.852Z,29.10
2022-09-01T13:03:43.134Z,29.16
2022-09-01T13:04:46.212Z,29.27
2022-09-01T13:05:53.217Z,29.28
2022-09-01T13:07:01.464Z,29.35
2022-09-01T13:08:08.674Z,29.52
2022-09-01T13:09:12.784Z,29.60
2022-09-01T13:10:16.119Z,29.50
2022-09-01T13:11:20.756Z,29.48
2022-09-01T13:12:23.812Z,29.42
2022-09-01T13:13:28.653Z,29.40
2022-09-01T13:14:31.982Z,29.32
2022-09-01T13:15:37.572Z,29.28
2022-09-01T13:16:42.082Z,29.24
2022-09-01T13:17:47.919Z,29.25
2022-09-01T13:20:16.353Z,29.58
2022-09-01T13:21:19.512Z,29.80
2022-09-01T13:22:23.574Z,29.91
2022-09-01T13:23:27.693Z,30.04
2022-09-01T13:24:32.097Z,30.01
2022-09-01T13:25:35.838Z,29.89
2022-09-01T13:26:40.010Z,29.80
2022-09-01T13:27:44.429Z,29.74
2022-09-01T13:28:48.730Z,29.72
2022-09-01T13:29:51.872Z,29.70
2022-09-01T13:32:24.309Z,29.55
2022-09-01T13:34:08.799Z,29.47
2022-09-01T13:34:55.506Z,29.40
2022-09-01T13:35:58.789Z,29.39
2022-09-01T13:37:02.913Z,29.42
2022-09-01T13:38:05.875Z,29.47
2022-09-01T13:39:10.165Z,29.65
2022-09-01T13:40:16.004Z,29.61
2022-09-01T13:41:20.287Z,29.57
2022-09-01T13:42:26.994Z,29.53
2022-09-01T13:43:33.000Z,29.47
2022-09-01T13:44:36.028Z,29.44
2022-09-01T13:45:45.043Z,29.42
2022-09-01T13:48:16.491Z,29.46
2022-09-01T13:52:13.409Z,29.67
2022-09-01T13:53:18.357Z,29.66
2022-09-01T13:54:21.751Z,29.66
2022-09-01T13:55:27.953Z,29.65
2022-09-01T13:56:31.197Z,29.59
2022-09-01T13:57:36.289Z,29.53
2022-09-01T13:58:41.313Z,29.40
2022-09-01T13:59:44.643Z,29.28
2022-09-01T14:00:50.887Z,29.34
2022-09-01T14:01:54.065Z,29.55
2022-09-01T14:03:01.442Z,29.58
2022-09-01T14:04:06.577Z,29.53
2022-09-01T14:05:12.864Z,29.34
2022-09-01T14:06:16.072Z,29.15
2022-09-01T14:07:20.574Z,29.06
2022-09-01T14:08:25.209Z,28.94
2022-09-01T14:09:28.281Z,28.88
2022-09-01T14:10:33.234Z,28.85
2022-09-01T14:11:36.696Z,28.70
2022-09-01T14:12:41.812Z,28.56
2022-09-01T14:13:46.015Z,28.43
2022-09-01T14:16:15.371Z,28.41
2022-09-01T14:17:19.093Z,28.46
2022-09-01T14:18:23.804Z,28.59
2022-09-01T14:19:26.892Z,28.68
2022-09-01T14:20:36.926Z,28.76
2022-09-01T14:21:40.536Z,28.81
2022-09-01T14:22:45.476Z,28.80
2022-09-01T14:23:51.665Z,28.87
2022-09-01T14:24:54.903Z,28.87
2022-09-01T14:25:59.301Z,28.90
2022-09-01T14:27:02.644Z,28.87
2022-09-01T14:28:07.054Z,28.79
2022-09-01T14:29:10.155Z,28.73
2022-09-01T14:30:16.678Z,28.77
2022-09-01T14:31:21.149Z,28.75
2022-09-01T14:32:27.159Z,28.76
2022-09-01T14:33:32.051Z,28.83
2022-09-01T14:34:35.422Z,28.96
2022-09-01T14:35:42.005Z,29.10
2022-09-01T14:36:45.944Z,29.27
2022-09-01T14:37:50.122Z,29.41
2022-09-01T14:38:55.124Z,29.42
2022-09-01T14:39:58.485Z,29.40
2022-09-01T14:41:03.292Z,29.31
2022-09-01T14:42:12.994Z,29.20
2022-09-01T14:43:18.126Z,29.06
2022-09-01T14:44:21.125Z,28.95
2022-09-01T14:45:26.932Z,28.84
2022-09-01T14:46:30.848Z,28.75
2022-09-01T14:47:35.140Z,28.70
2022-09-01T14:48:39.863Z,28.66
2022-09-01T14:49:43.196Z,28.67
2022-09-01T14:50:50.184Z,28.71
2022-09-01T14:53:17.460Z,28.82
2022-09-01T14:54:21.552Z,28.80
2022-09-01T14:55:27.058Z,28.79
2022-09-01T14:56:31.236Z,28.73
2022-09-01T14:57:37.525Z,28.62
2022-09-01T14:58:43.932Z,28.39
2022-09-01T14:59:47.038Z,28.22
2022-09-01T15:00:51.293Z,28.12
2022-09-01T15:01:54.965Z,27.88
2022-09-01T15:02:59.897Z,27.58
2022-09-01T15:04:03.422Z,27.30
2022-09-01T15:05:09.097Z,27.19
2022-09-01T15:06:15.208Z,27.20
2022-09-01T15:07:18.449Z,27.25
2022-09-01T15:08:23.901Z,27.34
2022-09-01T15:09:27.129Z,27.33
2022-09-01T15:10:32.525Z,27.34
2022-09-01T15:11:35.906Z,27.39
2022-09-01T15:12:49.932Z,27.56
2022-09-01T15:13:54.213Z,27.60
2022-09-01T15:14:57.353Z,27.67
2022-09-01T15:16:01.896Z,27.84
2022-09-01T15:17:05.732Z,27.99
2022-09-01T15:18:11.083Z,28.05
2022-09-01T15:19:15.620Z,28.12
2022-09-01T15:20:37.403Z,28.23
2022-09-01T15:21:45.303Z,28.31
2022-09-01T15:22:50.101Z,28.28
2022-09-01T15:23:55.557Z,28.16
2022-09-01T15:24:58.680Z,28.02
2022-09-01T15:26:02.894Z,27.88
2022-09-01T15:27:07.072Z,27.63
2022-09-01T15:28:11.415Z,27.41
2022-09-01T15:29:15.395Z,27.26
2022-09-01T15:30:21.852Z,26.98
2022-09-01T15:31:32.899Z,26.65
2022-09-01T15:32:36.285Z,26.31
2022-09-01T15:33:40.651Z,25.99
2022-09-01T15:34:43.711Z,25.59
2022-09-01T15:35:48.480Z,25.21
2022-09-01T15:36:52.961Z,24.84
2022-09-01T15:37:57.962Z,24.55
2022-09-01T15:39:01.210Z,24.24
2022-09-01T15:40:06.826Z,23.98
2022-09-01T15:41:11.303Z,23.73
2022-09-01T15:43:25.494Z,23.32
2022-09-01T15:44:28.623Z,23.11
2022-09-01T15:45:34.327Z,22.97
2022-09-01T15:46:39.262Z,22.85
2022-09-01T15:47:45.953Z,22.73
2022-09-01T15:48:50.710Z,22.61
2022-09-01T15:49:54.937Z,22.51
2022-09-01T15:51:17.872Z,22.36
2022-09-01T15:52:22.750Z,22.22
2022-09-01T15:53:27.072Z,22.22
2022-09-01T15:54:30.824Z,22.44
2022-09-01T15:55:42.343Z,22.85
2022-09-01T15:56:46.921Z,23.13
2022-09-01T15:57:55.152Z,23.39
2022-09-01T15:59:01.860Z,23.65
2022-09-01T16:00:07.762Z,23.94
2022-09-01T16:01:15.279Z,24.29
2022-09-01T16:02:21.643Z,24.50